Terminal Aerodrome Forecast
Issued by NWS

Home | Current Version | Previous Version | Text Only | Print | Product List | Glossary On
Versions: 1 2 3 4 5 6 7 8 9 10 11 12 13 14 15 16 17 18 19 20 21 22 23 24 25 26 27 28 29 30 31 32 33 34 35 36
703
FTAK31 PAFA 271400 AAA
TAFABT
TAF AMD
PABT 271400Z 2714/2812 VRB03KT P6SM BKN006 BKN014 OVC045
     FM272100 VRB03KT P6SM FEW010
     FM280800 VRB03KT P6SM FEW060 SCT100 SCT200=

USA.gov is the U.S. government's official web portal to all federal, state and local government web resources and services.